New Washington, Indiana
Current Conditions -  °F | °C
As of 2:53 PM on Saturday 25 Oct 2014 (Local Time) from KLOU Reporting Station
Scattered Clouds Scattered Clouds  
Wind Chill: 72°   Ceiling: Unl
Heat Index: 72°   Visibility: 9mi
Dew Point: 60°   Wind: 6mph
Humidity: 66%   Direction: 240°WSW
Pressure: 29.97"   Gusts: NA
Location:  38.56°N, 85.54°W
Report Text: KLOU 251853Z 24005KT 9SM SCT019 22/16 A2997 RMK AO2 SLP147 T02220156
Loading
Personal Weather Stations






























Interactive Weather Map
Tropical Storm Tracking
New forecast layout! Learn more

10-Day Weather Forecast

Advertisements
Track Severe Weather on mobile